Time;durP1;ratioP1;P1;durP2;ratioP2;P2;SDS_P1;SDS_P2;PMS_P1;PMS_P2;Temp;Humidity;BMP_temperature;BMP_pressure;BME280_temperature;BME280_humidity;BME280_pressure;Samples;Min_cycle;Max_cycle;Signal;HPM_P1;HPM_P2
2022/04/30 00:01:03;;;;;;;6.47;2.95;;;;;;;-145.50;100.00;65435.88;5074079;28;20244;-65
2022/04/30 00:03:30;;;;;;;7.43;3.25;;;;;;;-145.50;100.00;65435.88;5060952;28;20095;-66
2022/04/30 00:05:58;;;;;;;11.18;3.72;;;;;;;-145.50;100.00;65435.88;5051708;28;20072;-66
2022/04/30 00:08:24;;;;;;;8.77;3.45;;;;;;;-145.50;100.00;65435.88;5049339;28;20048;-67
2022/04/30 00:10:53;;;;;;;6.57;3.08;;;;;;;-145.50;100.00;65435.88;5056045;28;20045;-66
2022/04/30 00:13:20;;;;;;;10.13;3.28;;;;;;;-145.50;100.00;65435.88;5079541;28;20056;-66
2022/04/30 00:15:47;;;;;;;5.18;2.92;;;;;;;-145.50;100.00;65435.88;5054694;28;20062;-66
2022/04/30 00:18:13;;;;;;;11.82;3.47;;;;;;;-145.50;100.00;65435.88;5059156;28;20048;-68
2022/04/30 00:20:45;;;;;;;6.15;3.10;;;;;;;-145.50;100.00;65435.88;5057890;28;20056;-67
2022/04/30 00:23:19;;;;;;;6.95;3.55;;;;;;;-145.50;100.00;65435.88;5055269;28;20048;-67
2022/04/30 00:25:48;;;;;;;8.15;3.50;;;;;;;-145.50;100.00;65435.88;5062130;28;20063;-67
2022/04/30 00:28:16;;;;;;;5.53;3.67;;;;;;;-145.50;100.00;65435.88;5054487;28;20494;-66
2022/04/30 00:30:44;;;;;;;5.75;3.70;;;;;;;-145.50;100.00;65435.88;5062042;28;20052;-67
2022/04/30 00:33:10;;;;;;;5.72;3.10;;;;;;;-145.50;100.00;65435.88;5049841;28;20721;-66
2022/04/30 00:35:37;;;;;;;7.05;3.40;;;;;;;-145.50;100.00;65435.88;5072432;28;20155;-67
2022/04/30 00:38:04;;;;;;;7.53;3.78;;;;;;;-145.50;100.00;65435.88;5063199;28;20739;-67
2022/04/30 00:40:30;;;;;;;7.80;3.60;;;;;;;-145.50;100.00;65435.88;5058688;28;20587;-67
2022/04/30 00:42:57;;;;;;;7.38;3.63;;;;;;;-145.50;100.00;65435.88;5063103;28;20361;-66
2022/04/30 00:45:24;;;;;;;8.07;3.85;;;;;;;-145.50;100.00;65435.88;5065003;28;20044;-67
2022/04/30 00:47:50;;;;;;;7.85;3.88;;;;;;;-145.50;100.00;65435.88;5062241;28;20052;-67
2022/04/30 00:50:21;;;;;;;7.00;4.10;;;;;;;-145.50;100.00;65435.88;5059783;28;20977;-67
2022/04/30 00:52:50;;;;;;;7.13;3.63;;;;;;;-145.50;100.00;65435.88;5062745;28;20139;-67
2022/04/30 00:55:22;;;;;;;10.40;4.30;;;;;;;-145.50;100.00;65435.88;5062336;28;20048;-67
2022/04/30 00:57:54;;;;;;;9.95;4.18;;;;;;;-145.50;100.00;65435.88;5058509;28;20054;-67
2022/04/30 01:00:21;;;;;;;11.55;4.00;;;;;;;-145.50;100.00;65435.88;5053817;28;20253;-67
2022/04/30 01:02:47;;;;;;;8.63;4.57;;;;;;;-145.50;100.00;65435.88;5053328;28;20053;-67
2022/04/30 01:05:14;;;;;;;10.55;4.88;;;;;;;-145.50;100.00;65435.88;5070768;28;20079;-68
2022/04/30 01:07:41;;;;;;;9.00;4.28;;;;;;;-145.50;100.00;65435.88;5071375;28;20062;-67
2022/04/30 01:10:08;;;;;;;7.20;4.20;;;;;;;-145.50;100.00;65435.88;5071187;28;20048;-67
2022/04/30 01:12:35;;;;;;;9.93;4.97;;;;;;;-145.50;100.00;65435.88;5050031;28;20052;-67
2022/04/30 01:15:06;;;;;;;8.93;5.05;;;;;;;-145.50;100.00;65435.88;5055210;28;20063;-66
2022/04/30 01:17:35;;;;;;;11.50;4.45;;;;;;;-145.50;100.00;65435.88;5057375;28;20074;-67
2022/04/30 01:20:04;;;;;;;11.55;4.82;;;;;;;-145.50;100.00;65435.88;5052321;28;20082;-68
2022/04/30 01:22:38;;;;;;;9.30;4.80;;;;;;;-145.50;100.00;65435.88;5065781;28;20101;-67
2022/04/30 01:25:06;;;;;;;11.80;4.72;;;;;;;-145.50;100.00;65435.88;5052429;28;20374;-67
2022/04/30 01:27:36;;;;;;;8.38;4.65;;;;;;;-145.50;100.00;65435.88;5056027;28;20052;-67
2022/04/30 01:30:04;;;;;;;8.73;4.63;;;;;;;-145.50;100.00;65435.88;5048072;28;20541;-67
2022/04/30 01:38:04;;;;;;;9.38;5.07;;;;;;;-145.50;100.00;65435.88;5066904;28;20060;-68
2022/04/30 01:40:31;;;;;;;12.85;5.50;;;;;;;-145.50;100.00;65435.88;5058656;28;20056;-67
2022/04/30 01:43:01;;;;;;;11.88;5.20;;;;;;;-145.50;100.00;65435.88;5051504;28;20048;-67
2022/04/30 01:45:28;;;;;;;12.38;5.43;;;;;;;-145.50;100.00;65435.88;5062249;28;20048;-67
2022/04/30 01:47:57;;;;;;;9.75;5.35;;;;;;;-145.50;100.00;65435.88;5067997;28;20058;-67
2022/04/30 01:50:23;;;;;;;10.32;5.03;;;;;;;-145.50;100.00;65435.88;5061159;28;20049;-67
2022/04/30 01:52:50;;;;;;;17.17;6.45;;;;;;;-145.50;100.00;65435.88;5052230;28;20052;-67
2022/04/30 01:55:17;;;;;;;13.15;5.65;;;;;;;-145.50;100.00;65435.88;5055217;28;20059;-68
2022/04/30 01:57:44;;;;;;;11.60;5.82;;;;;;;-145.50;100.00;65435.88;5072868;28;20056;-68
2022/04/30 02:00:14;;;;;;;13.60;5.90;;;;;;;-145.50;100.00;65435.88;5052274;28;20520;-67
2022/04/30 02:02:45;;;;;;;9.55;5.82;;;;;;;-145.50;100.00;65435.88;5074026;28;20925;-67
2022/04/30 02:05:13;;;;;;;12.30;5.57;;;;;;;-145.50;100.00;65435.88;5062125;28;20964;-67
2022/04/30 02:07:48;;;;;;;11.70;5.90;;;;;;;-145.50;100.00;65435.88;5066149;28;20053;-67
2022/04/30 02:10:18;;;;;;;13.77;5.55;;;;;;;-145.50;100.00;65435.88;5048322;28;20048;-68
2022/04/30 02:12:44;;;;;;;9.93;5.57;;;;;;;-145.50;100.00;65435.88;5059915;28;20424;-67
2022/04/30 02:15:14;;;;;;;11.55;5.97;;;;;;;-145.50;100.00;65435.88;5060924;28;20055;-67
2022/04/30 02:17:41;;;;;;;9.60;5.78;;;;;;;-145.50;100.00;65435.88;5050495;28;20512;-67
2022/04/30 02:20:29;;;;;;;14.23;6.93;;;;;;;-145.50;100.00;65435.88;5059813;28;20453;-67
2022/04/30 02:22:57;;;;;;;10.48;5.95;;;;;;;-145.50;100.00;65435.88;5046412;28;20044;-67
2022/04/30 02:25:25;;;;;;;11.15;5.70;;;;;;;-145.50;100.00;65435.88;5057553;28;20057;-66
2022/04/30 02:28:04;;;;;;;8.38;4.75;;;;;;;-145.50;100.00;65435.88;5051027;28;20138;-66
2022/04/30 02:30:35;;;;;;;16.52;6.90;;;;;;;-145.50;100.00;65435.88;5068169;28;20147;-66
2022/04/30 02:33:10;;;;;;;10.48;5.85;;;;;;;-145.50;100.00;65435.88;5064201;28;20056;-66
2022/04/30 02:35:40;;;;;;;11.50;6.00;;;;;;;-145.50;100.00;65435.88;5064074;28;20056;-66
2022/04/30 02:38:10;;;;;;;14.27;6.50;;;;;;;-145.50;100.00;65435.88;5077033;28;20047;-66
2022/04/30 02:40:40;;;;;;;11.88;5.65;;;;;;;-145.50;100.00;65435.88;5052114;28;20062;-66
2022/04/30 02:43:16;;;;;;;10.50;6.13;;;;;;;-145.50;100.00;65435.88;5082560;28;20102;-66
2022/04/30 02:45:43;;;;;;;8.55;5.35;;;;;;;-145.50;100.00;65435.88;5066557;28;20051;-67
2022/04/30 02:48:12;;;;;;;15.13;6.50;;;;;;;-145.50;100.00;65435.88;5062940;28;20097;-66
2022/04/30 02:50:39;;;;;;;10.63;6.05;;;;;;;-145.50;100.00;65435.88;5048710;28;20060;-66
2022/04/30 02:53:06;;;;;;;11.45;5.60;;;;;;;-145.50;100.00;65435.88;5063337;28;20070;-67
2022/04/30 02:55:32;;;;;;;10.43;5.90;;;;;;;-145.50;100.00;65435.88;5071456;28;20044;-66
2022/04/30 03:00:50;;;;;;;16.95;6.10;;;;;;;-145.50;100.00;65435.88;5067993;28;20134;-66
2022/04/30 03:03:17;;;;;;;9.88;5.70;;;;;;;-145.50;100.00;65435.88;5057565;28;20502;-66
2022/04/30 03:05:45;;;;;;;10.18;5.72;;;;;;;-145.50;100.00;65435.88;5066535;28;20515;-66
2022/04/30 03:08:18;;;;;;;11.15;6.10;;;;;;;-145.50;100.00;65435.88;5059244;28;20110;-66
2022/04/30 03:10:46;;;;;;;11.70;5.80;;;;;;;-145.50;100.00;65435.88;5068647;28;20055;-68
2022/04/30 03:13:14;;;;;;;12.52;6.18;;;;;;;-145.50;100.00;65435.88;5066064;28;20051;-68
2022/04/30 03:15:45;;;;;;;12.52;6.10;;;;;;;-145.50;100.00;65435.88;5062306;28;20446;-68
2022/04/30 03:23:44;;;;;;;13.25;6.35;;;;;;;-145.50;100.00;65435.88;5082314;28;20062;-66
2022/04/30 03:26:12;;;;;;;14.32;5.97;;;;;;;-145.50;100.00;65435.88;5064162;28;20523;-66
2022/04/30 03:28:40;;;;;;;11.75;5.40;;;;;;;-145.50;100.00;65435.88;5063477;28;20535;-66
2022/04/30 03:31:08;;;;;;;;;;;;;;;-145.50;100.00;65435.88;5051563;28;20475;-66
2022/04/30 03:33:34;;;;;;;12.65;5.70;;;;;;;-145.50;100.00;65435.88;5059486;28;20016;-66
2022/04/30 03:36:02;;;;;;;13.25;5.53;;;;;;;-145.50;100.00;65435.88;5071114;28;20054;-65
2022/04/30 03:38:29;;;;;;;9.23;4.93;;;;;;;-145.50;100.00;65435.88;5064456;28;20474;-67
2022/04/30 03:40:56;;;;;;;10.45;5.72;;;;;;;-145.50;100.00;65435.88;5066914;28;20456;-67
2022/04/30 03:43:23;;;;;;;9.10;5.00;;;;;;;-145.50;100.00;65435.88;5066546;28;20052;-67
2022/04/30 03:45:49;;;;;;;13.10;5.82;;;;;;;-145.50;100.00;65435.88;5072582;28;20048;-67
2022/04/30 03:48:16;;;;;;;10.55;5.55;;;;;;;-145.50;100.00;65435.88;5070074;28;20048;-67
2022/04/30 03:50:42;;;;;;;7.63;4.93;;;;;;;-145.50;100.00;65435.88;5076545;28;20051;-68
2022/04/30 03:53:09;;;;;;;12.95;5.88;;;;;;;-145.50;100.00;65435.88;5056695;28;20059;-67
2022/04/30 03:55:36;;;;;;;13.32;5.47;;;;;;;-145.50;100.00;65435.88;5064586;28;20044;-67
2022/04/30 03:58:02;;;;;;;9.60;5.60;;;;;;;-145.50;100.00;65435.88;5067953;28;20047;-67
2022/04/30 04:00:29;;;;;;;11.70;5.75;;;;;;;-145.50;100.00;65435.88;5059764;28;20453;-67
2022/04/30 04:02:58;;;;;;;11.25;6.32;;;;;;;-145.50;100.00;65435.88;5070444;28;20052;-68
2022/04/30 04:05:25;;;;;;;10.32;4.80;;;;;;;-145.50;100.00;65435.88;5069227;28;20344;-67
2022/04/30 04:07:51;;;;;;;9.43;5.47;;;;;;;-145.50;100.00;65435.88;5078355;28;20064;-67
2022/04/30 04:10:18;;;;;;;13.18;5.40;;;;;;;-145.50;100.00;65435.88;5054529;28;20048;-68
2022/04/30 04:12:44;;;;;;;9.93;5.20;;;;;;;-145.50;100.00;65435.88;5058819;28;20496;-67
2022/04/30 04:17:56;;;;;;;11.15;5.65;;;;;;;-145.50;100.00;65435.88;5064922;28;20058;-67
2022/04/30 04:20:25;;;;;;;11.35;5.18;;;;;;;-145.50;100.00;65435.88;5066249;28;20055;-67
2022/04/30 04:22:54;;;;;;;9.38;5.10;;;;;;;-145.50;100.00;65435.88;5060247;28;20048;-67
2022/04/30 04:28:07;;;;;;;9.18;4.88;;;;;;;-145.50;100.00;65435.88;5046875;28;20400;-67
2022/04/30 04:30:34;;;;;;;12.25;5.10;;;;;;;-145.50;100.00;65435.88;5062416;28;20059;-67
2022/04/30 04:33:01;;;;;;;10.25;5.40;;;;;;;-145.50;100.00;65435.88;5061920;28;20056;-66
2022/04/30 04:35:28;;;;;;;9.57;4.85;;;;;;;-145.50;100.00;65435.88;5061476;28;20106;-67
2022/04/30 04:37:54;;;;;;;10.90;4.65;;;;;;;-145.50;100.00;65435.88;5065365;28;20506;-67
2022/04/30 04:40:21;;;;;;;12.05;5.32;;;;;;;-145.50;100.00;65435.88;5049531;28;20158;-66
2022/04/30 04:42:47;;;;;;;9.95;5.18;;;;;;;-145.50;100.00;65435.88;5065567;28;20051;-67
2022/04/30 04:45:14;;;;;;;10.10;5.43;;;;;;;-145.50;100.00;65435.88;5068043;28;20058;-67
2022/04/30 04:47:43;;;;;;;11.82;6.18;;;;;;;-145.50;100.00;65435.88;5063591;28;20052;-67
2022/04/30 04:50:12;;;;;;;13.85;5.10;;;;;;;-145.50;100.00;65435.88;5061459;28;20066;-67
2022/04/30 04:52:42;;;;;;;8.73;5.03;;;;;;;-145.50;100.00;65435.88;5053892;28;20363;-67
2022/04/30 04:55:09;;;;;;;8.93;5.18;;;;;;;-145.50;100.00;65435.88;5065173;28;20056;-67
2022/04/30 04:57:36;;;;;;;7.00;4.07;;;;;;;-145.50;100.00;65435.88;5072133;28;20055;-67
2022/04/30 05:00:07;;;;;;;12.10;5.10;;;;;;;-145.50;100.00;65435.88;5073707;28;20568;-67
2022/04/30 05:02:34;;;;;;;11.20;5.13;;;;;;;-145.50;100.00;65435.88;5055474;28;20729;-66
2022/04/30 05:05:01;;;;;;;9.32;5.40;;;;;;;-145.50;100.00;65435.88;5056801;28;20506;-67
2022/04/30 05:07:27;;;;;;;9.15;4.55;;;;;;;-145.50;100.00;65435.88;5062119;28;20082;-67
2022/04/30 05:09:54;;;;;;;14.98;5.22;;;;;;;-145.50;100.00;65435.88;5052900;28;20063;-67
2022/04/30 05:12:20;;;;;;;11.93;5.53;;;;;;;-145.50;100.00;65435.88;5062139;28;20091;-67
2022/04/30 05:14:48;;;;;;;10.50;5.28;;;;;;;-145.50;100.00;65435.88;5052313;28;20056;-68
2022/04/30 05:17:15;;;;;;;9.03;4.80;;;;;;;-145.50;100.00;65435.88;5072105;28;20052;-67
2022/04/30 05:19:41;;;;;;;9.57;4.88;;;;;;;-145.50;100.00;65435.88;5050897;28;20392;-67
2022/04/30 05:22:08;;;;;;;10.23;4.45;;;;;;;-145.50;100.00;65435.88;5074810;28;20048;-66
2022/04/30 05:24:34;;;;;;;11.75;5.60;;;;;;;-145.50;100.00;65435.88;5061148;28;20075;-66
2022/04/30 05:27:01;;;;;;;10.45;5.38;;;;;;;-145.50;100.00;65435.88;5051955;28;20056;-68
2022/04/30 05:29:28;;;;;;;12.32;4.90;;;;;;;-145.50;100.00;65435.88;5074917;28;20052;-68
2022/04/30 05:31:54;;;;;;;9.85;4.72;;;;;;;-145.50;100.00;65435.88;5053009;28;20551;-69
2022/04/30 05:34:21;;;;;;;6.82;4.10;;;;;;;-145.50;100.00;65435.88;5058515;28;20052;-67
2022/04/30 05:36:47;;;;;;;9.88;5.00;;;;;;;-145.50;100.00;65435.88;5060191;28;20049;-66
2022/04/30 05:39:14;;;;;;;8.70;4.80;;;;;;;-145.50;100.00;65435.88;5063064;28;20765;-67
2022/04/30 05:41:40;;;;;;;8.40;5.22;;;;;;;-145.50;100.00;65435.88;5065349;28;20142;-68
2022/04/30 05:44:07;;;;;;;12.00;5.18;;;;;;;-145.50;100.00;65435.88;5061615;28;20048;-67
2022/04/30 05:46:33;;;;;;;9.35;4.68;;;;;;;-145.50;100.00;65435.88;5060930;28;20049;-67
2022/04/30 05:48:59;;;;;;;9.80;5.05;;;;;;;-145.50;100.00;65435.88;5034409;28;20420;-67
2022/04/30 05:51:26;;;;;;;9.70;5.10;;;;;;;-145.50;100.00;65435.88;5064267;28;20048;-67
2022/04/30 05:53:52;;;;;;;10.07;4.82;;;;;;;-145.50;100.00;65435.88;5066801;28;20543;-67
2022/04/30 05:56:19;;;;;;;12.05;4.88;;;;;;;-145.50;100.00;65435.88;5065767;28;20083;-67
2022/04/30 05:58:46;;;;;;;9.55;4.53;;;;;;;-145.50;100.00;65435.88;5058142;28;20110;-68
2022/04/30 06:01:12;;;;;;;9.77;4.57;;;;;;;-145.50;100.00;65435.88;5048123;28;20063;-68
2022/04/30 06:03:39;;;;;;;6.88;4.70;;;;;;;-145.50;100.00;65435.88;5060835;28;20420;-68
2022/04/30 06:06:06;;;;;;;8.07;4.30;;;;;;;-145.50;100.00;65435.88;5056425;28;20094;-68
2022/04/30 06:08:33;;;;;;;8.60;4.50;;;;;;;-145.50;100.00;65435.88;5066542;28;20477;-67
2022/04/30 06:11:00;;;;;;;10.65;4.75;;;;;;;-145.50;100.00;65435.88;5060968;28;20448;-68
2022/04/30 06:13:26;;;;;;;10.38;4.20;;;;;;;-145.50;100.00;65435.88;5074025;28;20269;-68
2022/04/30 06:15:53;;;;;;;7.07;4.40;;;;;;;-145.50;100.00;65435.88;5059165;28;20316;-67
2022/04/30 06:18:20;;;;;;;6.82;3.90;;;;;;;-145.50;100.00;65435.88;5065771;28;20055;-69
2022/04/30 06:20:46;;;;;;;8.45;3.75;;;;;;;-145.50;100.00;65435.88;5074965;28;20048;-68
2022/04/30 06:23:15;;;;;;;7.93;4.28;;;;;;;-145.50;100.00;65435.88;5057180;28;20544;-68
2022/04/30 06:25:43;;;;;;;;;;;;;;;-145.50;100.00;65435.88;5064922;28;20090;-67
2022/04/30 06:28:11;;;;;;;8.40;4.13;;;;;;;-145.50;100.00;65435.88;5068458;28;20175;-67
2022/04/30 06:30:39;;;;;;;11.30;4.50;;;;;;;-145.50;100.00;65435.88;5062369;28;20060;-66
2022/04/30 06:33:06;;;;;;;14.77;5.00;;;;;;;-145.50;100.00;65435.88;5063898;28;20075;-67
2022/04/30 06:35:32;;;;;;;10.45;4.68;;;;;;;-145.50;100.00;65435.88;5064929;28;20773;-68
2022/04/30 06:37:59;;;;;;;7.97;4.35;;;;;;;-145.50;100.00;65435.88;5065413;28;20048;-68
2022/04/30 06:40:25;;;;;;;8.18;4.60;;;;;;;-145.50;100.00;65435.88;5053571;28;20064;-68
2022/04/30 06:42:52;;;;;;;6.30;4.13;;;;;;;-145.50;100.00;65435.88;5067137;28;20097;-68
2022/04/30 06:45:18;;;;;;;10.15;4.45;;;;;;;-145.50;100.00;65435.88;5070095;28;20058;-68
2022/04/30 06:47:45;;;;;;;8.27;4.05;;;;;;;-145.50;100.00;65435.88;5054379;28;20052;-66
2022/04/30 06:50:11;;;;;;;6.80;4.22;;;;;;;-145.50;100.00;65435.88;5069823;28;20583;-66
2022/04/30 06:58:08;;;;;;;6.63;3.42;;;;;;;-145.50;100.00;65435.88;5063666;28;20055;-67
2022/04/30 07:03:26;;;;;;;7.90;3.05;;;;;;;-145.50;100.00;65435.88;5059824;28;20052;-67
2022/04/30 07:06:01;;;;;;;8.07;3.25;;;;;;;-145.50;100.00;65435.88;5075838;28;20052;-67
2022/04/30 07:08:29;;;;;;;7.30;3.03;;;;;;;-145.50;100.00;65435.88;5068351;28;20048;-66
2022/04/30 07:10:56;;;;;;;6.38;3.10;;;;;;;-145.50;100.00;65435.88;5074127;28;20040;-67
2022/04/30 07:13:22;;;;;;;4.38;2.75;;;;;;;-145.50;100.00;65435.88;5076667;28;20052;-66
2022/04/30 07:15:49;;;;;;;8.27;3.30;;;;;;;-145.50;100.00;65435.88;5064725;28;20048;-68
2022/04/30 07:18:15;;;;;;;8.38;3.33;;;;;;;-145.50;100.00;65435.88;5068281;28;20448;-68
2022/04/30 07:20:45;;;;;;;5.82;3.10;;;;;;;-145.50;100.00;65435.88;5065846;28;20052;-68
2022/04/30 07:23:11;;;;;;;6.45;3.25;;;;;;;-145.50;100.00;65435.88;5072512;28;20063;-67
2022/04/30 07:25:38;;;;;;;5.53;3.00;;;;;;;-145.50;100.00;65435.88;5060344;28;20143;-66
2022/04/30 07:28:04;;;;;;;5.28;2.75;;;;;;;-145.50;100.00;65435.88;5070295;28;20044;-67
2022/04/30 07:30:31;;;;;;;6.97;2.92;;;;;;;-145.50;100.00;65435.88;5065631;28;20054;-67
2022/04/30 07:32:57;;;;;;;3.58;1.92;;;;;;;-145.50;100.00;65435.88;5053571;28;20054;-67
2022/04/30 07:35:23;;;;;;;6.18;3.00;;;;;;;-145.50;100.00;65435.88;5072530;28;20066;-67
2022/04/30 07:37:50;;;;;;;6.93;3.20;;;;;;;-145.50;100.00;65435.88;5050359;28;20361;-69
2022/04/30 07:40:16;;;;;;;5.40;3.28;;;;;;;-145.50;100.00;65435.88;5071391;28;20045;-66
2022/04/30 07:42:43;;;;;;;9.95;4.03;;;;;;;-145.50;100.00;65435.88;5072910;28;20056;-66
2022/04/30 07:45:10;;;;;;;4.88;3.47;;;;;;;-145.50;100.00;65435.88;5060903;28;20097;-67
2022/04/30 07:47:37;;;;;;;5.93;3.70;;;;;;;-145.50;100.00;65435.88;5075240;28;20053;-67
2022/04/30 07:50:04;;;;;;;7.72;3.83;;;;;;;-145.50;100.00;65435.88;5058139;28;20494;-67
2022/04/30 07:52:32;;;;;;;7.85;4.18;;;;;;;-145.50;100.00;65435.88;5041857;28;20726;-65
2022/04/30 07:55:02;;;;;;;7.30;3.83;;;;;;;-145.50;100.00;65435.88;5058488;28;20127;-66
2022/04/30 07:57:28;;;;;;;8.73;3.63;;;;;;;-145.50;100.00;65435.88;5072177;28;20054;-66
2022/04/30 07:59:55;;;;;;;5.07;3.30;;;;;;;-145.50;100.00;65435.88;5062542;28;20056;-67
2022/04/30 08:02:21;;;;;;;5.57;3.03;;;;;;;-145.50;100.00;65435.88;5040662;28;20052;-67
2022/04/30 08:04:48;;;;;;;4.32;3.03;;;;;;;-145.50;100.00;65435.88;5057439;28;20054;-67
2022/04/30 08:07:14;;;;;;;6.35;3.33;;;;;;;-145.50;100.00;65435.88;5058650;28;20059;-66
2022/04/30 08:09:41;;;;;;;9.18;3.30;;;;;;;-145.50;100.00;65435.88;5064493;28;20045;-67
2022/04/30 08:12:08;;;;;;;5.03;3.00;;;;;;;-145.50;100.00;65435.88;5056006;28;20048;-66
2022/04/30 08:14:34;;;;;;;7.55;3.20;;;;;;;-145.50;100.00;65435.88;5063853;28;20537;-67
2022/04/30 08:17:01;;;;;;;5.53;3.10;;;;;;;-145.50;100.00;65435.88;5078849;28;20058;-69
2022/04/30 08:19:27;;;;;;;7.40;3.05;;;;;;;-145.50;100.00;65435.88;5055954;28;20052;-67
2022/04/30 08:21:58;;;;;;;5.97;3.00;;;;;;;-145.50;100.00;65435.88;5079669;28;20158;-68
2022/04/30 08:24:40;;;;;;;8.57;3.58;;;;;;;-145.50;100.00;65435.88;5053947;28;20076;-68
2022/04/30 08:27:07;;;;;;;8.60;4.38;;;;;;;-145.50;100.00;65435.88;5063878;28;20521;-67
2022/04/30 08:29:33;;;;;;;7.70;4.72;;;;;;;-145.50;100.00;65435.88;5059729;28;21011;-66
2022/04/30 08:32:00;;;;;;;9.25;4.60;;;;;;;-145.50;100.00;65435.88;5071800;28;20049;-68
2022/04/30 08:34:26;;;;;;;7.10;4.85;;;;;;;-145.50;100.00;65435.88;5056977;28;20133;-66
2022/04/30 08:36:53;;;;;;;8.18;4.57;;;;;;;-145.50;100.00;65435.88;5064650;28;20049;-66
2022/04/30 08:39:19;;;;;;;10.32;4.28;;;;;;;-145.50;100.00;65435.88;5074619;28;20055;-66
2022/04/30 08:41:46;;;;;;;9.57;5.65;;;;;;;-145.50;100.00;65435.88;5059347;28;20056;-66
2022/04/30 08:44:14;;;;;;;8.88;4.80;;;;;;;-145.50;100.00;65435.88;5076044;28;20398;-66
2022/04/30 08:46:42;;;;;;;7.67;4.60;;;;;;;-145.50;100.00;65435.88;5063606;28;20054;-67
2022/04/30 08:49:09;;;;;;;9.88;4.43;;;;;;;-145.50;100.00;65435.88;5070572;28;20382;-66
2022/04/30 08:51:36;;;;;;;6.97;3.88;;;;;;;-145.50;100.00;65435.88;5064022;28;20052;-67
2022/04/30 08:54:03;;;;;;;8.68;4.50;;;;;;;-145.50;100.00;65435.88;5049815;28;20461;-66
2022/04/30 08:56:29;;;;;;;7.68;4.03;;;;;;;-145.50;100.00;65435.88;5057678;28;20433;-67
2022/04/30 08:59:02;;;;;;;7.63;3.88;;;;;;;-145.50;100.00;65435.88;5056663;28;20063;-66
2022/04/30 09:01:29;;;;;;;8.60;4.30;;;;;;;-145.50;100.00;65435.88;5077837;28;20528;-66
2022/04/30 09:03:56;;;;;;;10.10;4.15;;;;;;;-145.50;100.00;65435.88;5057373;28;20044;-67
2022/04/30 09:06:25;;;;;;;8.52;4.20;;;;;;;-145.50;100.00;65435.88;5073174;28;20509;-67
2022/04/30 09:08:51;;;;;;;;;;;;;;;-145.50;100.00;65435.88;5052043;28;20576;-67
2022/04/30 09:11:27;;;;;;;8.02;4.07;;;;;;;-145.50;100.00;65435.88;5063852;28;20246;-67
2022/04/30 09:13:53;;;;;;;7.75;4.07;;;;;;;-145.50;100.00;65435.88;5062030;28;20048;-66
2022/04/30 09:16:24;;;;;;;8.30;4.05;;;;;;;-145.50;100.00;65435.88;5059464;28;20416;-68
2022/04/30 09:18:55;;;;;;;6.53;3.95;;;;;;;-145.50;100.00;65435.88;5065983;28;20139;-67
2022/04/30 09:21:22;;;;;;;7.38;3.60;;;;;;;-145.50;100.00;65435.88;5052056;28;20063;-68
2022/04/30 09:23:49;;;;;;;5.78;3.58;;;;;;;-145.50;100.00;65435.88;5057510;28;20045;-68
2022/04/30 09:26:16;;;;;;;8.88;3.50;;;;;;;-145.50;100.00;65435.88;5054599;28;20359;-67
2022/04/30 09:28:45;;;;;;;7.63;3.95;;;;;;;-145.50;100.00;65435.88;5061538;28;20560;-67
2022/04/30 09:31:14;;;;;;;7.97;4.28;;;;;;;-145.50;100.00;65435.88;5061116;28;20417;-66
2022/04/30 09:33:55;;;;;;;7.18;4.05;;;;;;;-145.50;100.00;65435.88;5053217;28;20056;-67
2022/04/30 09:39:12;;;;;;;10.63;4.35;;;;;;;-145.50;100.00;65435.88;5056280;28;20070;-67
2022/04/30 09:41:38;;;;;;;6.72;3.85;;;;;;;-145.50;100.00;65435.88;5067278;28;20059;-67
2022/04/30 09:44:07;;;;;;;7.38;3.90;;;;;;;-145.50;100.00;65435.88;5057080;28;20511;-68
2022/04/30 09:46:37;;;;;;;8.35;4.45;;;;;;;-145.50;100.00;65435.88;5063881;28;20056;-67
2022/04/30 09:54:38;;;;;;;8.82;3.70;;;;;;;-145.50;100.00;65435.88;5052721;28;20055;-67
2022/04/30 09:57:07;;;;;;;8.07;3.78;;;;;;;-145.50;100.00;65435.88;5059427;28;20063;-67
2022/04/30 09:59:39;;;;;;;12.10;3.78;;;;;;;-145.50;100.00;65435.88;5068364;28;20056;-67
2022/04/30 10:02:08;;;;;;;7.05;3.65;;;;;;;-145.50;100.00;65435.88;5056194;28;20055;-68
2022/04/30 10:04:36;;;;;;;9.15;4.50;;;;;;;-145.50;100.00;65435.88;5068407;28;20083;-68
2022/04/30 10:07:04;;;;;;;6.20;3.50;;;;;;;-145.50;100.00;65435.88;5064876;28;20056;-68
2022/04/30 10:09:46;;;;;;;7.47;4.20;;;;;;;-145.50;100.00;65435.88;5064107;28;20052;-67
2022/04/30 10:12:31;;;;;;;5.55;3.65;;;;;;;-145.50;100.00;65435.88;5065225;28;20052;-66
2022/04/30 10:15:10;;;;;;;10.43;4.28;;;;;;;-145.50;100.00;65435.88;5072145;28;20059;-67
2022/04/30 10:17:41;;;;;;;8.07;3.50;;;;;;;-145.50;100.00;65435.88;5058642;28;20048;-67
2022/04/30 10:20:16;;;;;;;8.73;4.05;;;;;;;-145.50;100.00;65435.88;5073347;28;20517;-67
2022/04/30 10:22:50;;;;;;;8.35;4.22;;;;;;;-145.50;100.00;65435.88;5079490;28;20068;-67
2022/04/30 10:25:17;;;;;;;6.43;4.15;;;;;;;-145.50;100.00;65435.88;5056040;28;20044;-68
2022/04/30 10:27:46;;;;;;;7.97;4.03;;;;;;;-145.50;100.00;65435.88;5069185;28;20044;-68
2022/04/30 10:30:24;;;;;;;7.53;4.30;;;;;;;-145.50;100.00;65435.88;5058957;28;20049;-67
2022/04/30 10:32:59;;;;;;;11.83;4.43;;;;;;;-145.50;100.00;65435.88;5061639;28;20274;-67
2022/04/30 10:35:33;;;;;;;8.65;4.45;;;;;;;-145.50;100.00;65435.88;5059153;28;20284;-67
2022/04/30 10:38:18;;;;;;;6.78;3.95;;;;;;;-145.50;100.00;65435.88;5070123;28;20079;-68
2022/04/30 10:40:50;;;;;;;7.60;4.28;;;;;;;-145.50;100.00;65435.88;5060075;28;20434;-66
2022/04/30 10:43:26;;;;;;;8.02;4.30;;;;;;;-145.50;100.00;65435.88;5072159;28;20047;-67
2022/04/30 10:45:55;;;;;;;8.02;4.35;;;;;;;-145.50;100.00;65435.88;5058997;28;20052;-67
2022/04/30 10:48:21;;;;;;;8.25;4.88;;;;;;;-145.50;100.00;65435.88;5067793;28;20134;-68
2022/04/30 10:50:59;;;;;;;9.20;5.18;;;;;;;-145.50;100.00;65435.88;5068608;28;20048;-66
2022/04/30 10:53:28;;;;;;;9.30;5.55;;;;;;;-145.50;100.00;65435.88;5059251;28;20059;-67
2022/04/30 10:55:55;;;;;;;;;;;;;;;-145.50;100.00;65435.88;5071758;28;20048;-68
2022/04/30 10:58:22;;;;;;;6.70;5.05;;;;;;;-145.50;100.00;65435.88;5063947;28;19931;-68
2022/04/30 11:00:49;;;;;;;6.57;4.72;;;;;;;-145.50;100.00;65435.88;5064198;28;20056;-67
2022/04/30 11:03:17;;;;;;;9.15;4.97;;;;;;;-145.50;100.00;65435.88;5063165;28;20056;-67
2022/04/30 11:05:48;;;;;;;8.68;5.05;;;;;;;-145.50;100.00;65435.88;5069734;28;20067;-67
2022/04/30 11:08:14;;;;;;;8.30;4.60;;;;;;;-145.50;100.00;65435.88;5069358;28;20493;-68
2022/04/30 11:10:52;;;;;;;8.73;4.85;;;;;;;-145.50;100.00;65435.88;5062977;28;20054;-67
2022/04/30 11:13:19;;;;;;;8.60;4.40;;;;;;;-145.50;100.00;65435.88;5070445;28;20052;-67
2022/04/30 11:15:46;;;;;;;6.60;3.78;;;;;;;-145.50;100.00;65435.88;5053078;28;20051;-67
2022/04/30 11:18:17;;;;;;;7.65;3.95;;;;;;;-145.50;100.00;65435.88;5081194;28;20066;-67
2022/04/30 11:20:43;;;;;;;7.82;4.18;;;;;;;-145.50;100.00;65435.88;5065382;28;20503;-67
2022/04/30 11:23:20;;;;;;;7.80;3.65;;;;;;;-145.50;100.00;65435.88;5082053;28;20058;-67
2022/04/30 11:25:47;;;;;;;7.80;4.43;;;;;;;-145.50;100.00;65435.88;5076011;28;20074;-67
2022/04/30 11:28:13;;;;;;;8.98;4.13;;;;;;;-145.50;100.00;65435.88;5068471;28;20280;-67
2022/04/30 11:30:42;;;;;;;7.55;4.20;;;;;;;-145.50;100.00;65435.88;5072859;28;20500;-68
2022/04/30 11:33:09;;;;;;;8.27;4.28;;;;;;;-145.50;100.00;65435.88;5061658;28;20052;-67
2022/04/30 11:35:36;;;;;;;7.53;3.95;;;;;;;-145.50;100.00;65435.88;5076192;28;20671;-67
2022/04/30 11:38:07;;;;;;;7.93;4.07;;;;;;;-145.50;100.00;65435.88;5060225;28;20057;-66
2022/04/30 11:40:34;;;;;;;6.18;3.50;;;;;;;-145.50;100.00;65435.88;5064831;28;20561;-66
2022/04/30 11:43:02;;;;;;;4.90;3.13;;;;;;;-145.50;100.00;65435.88;5079001;28;20040;-66
2022/04/30 11:45:31;;;;;;;7.68;3.90;;;;;;;-145.50;100.00;65435.88;5060510;28;20495;-66
2022/04/30 11:47:58;;;;;;;7.90;4.63;;;;;;;-145.50;100.00;65435.88;5062222;28;20091;-66